Terminal Aerodrome Forecast
Issued by NWS

Current Version | Previous Version | Graphics & Text | Print | Product List | Glossary On
Versions: 1 2 3 4 5 6 7 8 9 10 11 12 13 14 15 16 17 18 19 20 21 22 23
477
FTUS41 KILN 280531
TAFLUK
TAF
KLUK 280531Z 2806/2906 00000KT 3SM BR SCT050 BKN250
      TEMPO 2807/2810 1SM BR SCT002
     FM281000 00000KT 1SM BR SCT002 BKN150
      TEMPO 2810/2811 1/2SM FG VV002
     FM281200 00000KT 3SM BR SCT002 BKN150
     FM281300 20008KT P6SM VCSH SCT035 BKN150
     FM281700 21010KT P6SM BKN035
     FM282300 00000KT P6SM FEW040 BKN150=

USA.gov is the U.S. government's official web portal to all federal, state and local government web resources and services.